Main page
METAR-TAF:

METAR-TAF

Airports :

Genoa Cristoforo Colombo Airport

Genoa, Italy

latitude: 44-25N, longitude: 008-51E, elevation: 2 m

Current weather observation

The report was made 19 minutes ago, at 09:20 UTC
Wind 9 kt from the West
Temperature 16°C
Humidity 77%
Pressure 1004 hPa
Visibility 10 km or more
Few clouds at a height of 2300 ft
Broken clouds at a height of 4800 ft
Broken clouds at a height of 8000 ft

METAR: LIMJ 190920Z 27009KT 9999 FEW023 BKN048 BKN080 16/12 Q1004

Time: 11:39 (09:39 UTC)

Forecast

The report was made 4 hours and 39 minutes ago, at 05:00 UTC
Forecast valid from 19 at 06 UTC to 20 at 06 UTC
Wind 5 kt from variable directions
Visibility 10 km or more
Broken clouds at a height of 2500 ft
Broken clouds at a height of 6000 ft
Temporary
from 19 at 06 UTC to 20 at 06 UTC
rain
Probability 40% :
Temporary
from 19 at 20 UTC to 20 at 06 UTC
Visibility: 4000 m
rain showers

TAF: LIMJ 190500Z 1906/2006 VRB05KT 9999 BKN025 BKN060 TEMPO 1906/2006 RA PROB40 TEMPO 1920/2006 4000 SHRA

Weather observations and forecasts of more than 4000 airports (METAR and TAF reports).

The available stations are represented by yellow and red dots on the map.

Hover mouse over dot to see the name of the station.

Then click to see weather observations and forecasts.

To change the map : click on the green buttons with a black cross to zoom in, on the green button with a dash to zoom out, or on the green arrows for adjacent maps.


METAR-TAF: